Time;durP1;ratioP1;P1;durP2;ratioP2;P2;SDS_P1;SDS_P2;PMS_P1;PMS_P2;Temp;Humidity;BMP_temperature;BMP_pressure;BME280_temperature;BME280_humidity;BME280_pressure;Samples;Min_cycle;Max_cycle;Signal;HPM_P1;HPM_P2
2023/04/28 00:01:27;;;;;;;5.82;3.40;;;;;;;;;;5088775;28;20052;-74
2023/04/28 00:03:54;;;;;;;6.20;3.55;;;;;;;;;;5089089;28;20055;-76
2023/04/28 00:06:21;;;;;;;7.15;4.05;;;;;;;;;;5088958;28;20135;-75
2023/04/28 00:08:48;;;;;;;5.85;3.72;;;;;;;;;;5088992;28;20085;-75
2023/04/28 00:11:15;;;;;;;6.78;3.50;;;;;;;;;;5088747;28;20062;-74
2023/04/28 00:13:41;;;;;;;8.55;3.70;;;;;;;;;;5088929;28;20056;-74
2023/04/28 00:16:08;;;;;;;5.32;3.90;;;;;;;;;;5072365;28;20054;-73
2023/04/28 00:18:35;;;;;;;5.95;3.80;;;;;;;;;;5098948;28;20040;-73
2023/04/28 00:21:01;;;;;;;6.65;4.03;;;;;;;;;;5088535;28;20411;-74
2023/04/28 00:23:28;;;;;;;3.85;3.30;;;;;;;;;;5088909;28;20048;-74
2023/04/28 00:25:56;;;;;;;4.65;3.60;;;;;;;;;;5088711;28;20048;-74
2023/04/28 00:28:23;;;;;;;5.30;3.83;;;;;;;;;;5088690;28;20543;-75
2023/04/28 00:30:59;;;;;;;5.90;3.90;;;;;;;;;;5088517;28;20120;-75
2023/04/28 00:33:26;;;;;;;6.13;4.38;;;;;;;;;;5088717;28;20105;-75
2023/04/28 00:35:59;;;;;;;5.22;3.65;;;;;;;;;;5088925;28;20044;-75
2023/04/28 00:38:27;;;;;;;4.60;3.53;;;;;;;;;;5088907;28;20056;-75
2023/04/28 00:40:54;;;;;;;5.68;4.03;;;;;;;;;;5088224;28;20130;-75
2023/04/28 00:43:20;;;;;;;6.20;3.60;;;;;;;;;;5088653;28;20135;-75
2023/04/28 00:45:50;;;;;;;7.22;3.65;;;;;;;;;;5088656;28;20101;-75
2023/04/28 00:48:18;;;;;;;4.75;3.25;;;;;;;;;;5072042;28;20056;-75
2023/04/28 00:50:45;;;;;;;6.28;3.67;;;;;;;;;;5088159;28;20131;-74
2023/04/28 00:53:12;;;;;;;6.85;3.78;;;;;;;;;;5089422;28;20083;-74
2023/04/28 00:55:39;;;;;;;6.13;3.60;;;;;;;;;;5056031;28;20049;-76
2023/04/28 00:58:06;;;;;;;6.15;3.90;;;;;;;;;;5088881;28;20101;-75
2023/04/28 01:00:33;;;;;;;7.60;4.30;;;;;;;;;;5087928;28;20060;-75
2023/04/28 01:03:00;;;;;;;6.85;3.53;;;;;;;;;;5088718;28;20048;-75
2023/04/28 01:05:27;;;;;;;5.50;3.72;;;;;;;;;;5088893;28;20128;-75
2023/04/28 01:07:54;;;;;;;5.57;3.67;;;;;;;;;;5088919;28;20063;-75
2023/04/28 01:10:21;;;;;;;5.35;3.60;;;;;;;;;;5088264;28;20131;-75
2023/04/28 01:12:48;;;;;;;4.10;3.50;;;;;;;;;;5088757;28;20634;-75
2023/04/28 01:15:16;;;;;;;6.38;3.78;;;;;;;;;;5088685;28;20048;-75
2023/04/28 01:17:44;;;;;;;3.80;3.33;;;;;;;;;;5072352;28;20524;-75
2023/04/28 01:20:11;;;;;;;4.50;3.30;;;;;;;;;;5051425;28;20057;-76
2023/04/28 01:22:38;;;;;;;4.07;2.85;;;;;;;;;;5068046;28;20063;-75
2023/04/28 01:25:05;;;;;;;5.20;3.25;;;;;;;;;;5068124;28;20047;-76
2023/04/28 01:27:32;;;;;;;7.20;3.40;;;;;;;;;;5068063;28;20056;-76
2023/04/28 01:29:58;;;;;;;5.28;3.03;;;;;;;;;;5076842;28;20110;-76
2023/04/28 01:32:25;;;;;;;4.05;2.90;;;;;;;;;;5087900;28;20053;-75
2023/04/28 01:34:52;;;;;;;4.03;3.30;;;;;;;;;;5087819;28;20052;-75
2023/04/28 01:37:19;;;;;;;4.35;3.40;;;;;;;;;;5087702;28;20503;-75
2023/04/28 01:39:45;;;;;;;4.18;2.83;;;;;;;;;;5089815;28;20056;-74
2023/04/28 01:42:12;;;;;;;5.18;3.70;;;;;;;;;;5091687;28;20154;-75
2023/04/28 01:44:40;;;;;;;6.03;3.30;;;;;;;;;;5091785;28;20147;-76
2023/04/28 01:47:06;;;;;;;4.38;3.42;;;;;;;;;;5091265;28;20510;-75
2023/04/28 01:49:33;;;;;;;4.70;3.40;;;;;;;;;;5093191;28;20056;-75
2023/04/28 01:52:00;;;;;;;5.55;4.05;;;;;;;;;;5075079;28;20056;-76
2023/04/28 01:54:27;;;;;;;4.30;3.78;;;;;;;;;;5091313;28;20059;-76
2023/04/28 01:56:53;;;;;;;3.42;3.13;;;;;;;;;;5074741;28;20060;-75
2023/04/28 01:59:20;;;;;;;4.18;3.50;;;;;;;;;;5075850;28;20063;-76
2023/04/28 02:01:47;;;;;;;6.75;3.83;;;;;;;;;;5100413;28;20345;-75
2023/04/28 02:04:14;;;;;;;7.13;3.85;;;;;;;;;;5074943;28;20142;-75
2023/04/28 02:06:41;;;;;;;4.70;3.70;;;;;;;;;;5091395;28;20128;-76
2023/04/28 02:09:08;;;;;;;5.97;4.10;;;;;;;;;;5074590;28;20423;-76
2023/04/28 02:11:34;;;;;;;5.53;3.60;;;;;;;;;;5090780;28;20056;-75
2023/04/28 02:14:01;;;;;;;5.13;3.65;;;;;;;;;;5090968;28;20150;-76
2023/04/28 02:16:28;;;;;;;5.85;3.78;;;;;;;;;;5092180;28;20059;-75
2023/04/28 02:18:55;;;;;;;6.05;3.72;;;;;;;;;;5090930;28;20052;-75
2023/04/28 02:21:21;;;;;;;4.22;3.83;;;;;;;;;;5073452;28;20427;-75
2023/04/28 02:23:49;;;;;;;4.68;3.88;;;;;;;;;;5093038;28;20052;-76
2023/04/28 02:26:16;;;;;;;5.72;4.28;;;;;;;;;;5093537;28;20052;-76
2023/04/28 02:28:42;;;;;;;7.25;5.05;;;;;;;;;;5075747;28;20134;-76
2023/04/28 02:31:10;;;;;;;9.57;4.65;;;;;;;;;;5090751;28;20052;-77
2023/04/28 02:33:37;;;;;;;6.55;4.00;;;;;;;;;;5070999;28;20082;-76
2023/04/28 02:36:04;;;;;;;4.85;4.03;;;;;;;;;;5071748;28;20052;-75
2023/04/28 02:38:31;;;;;;;4.53;3.95;;;;;;;;;;5070525;28;20454;-75
2023/04/28 02:41:05;;;;;;;6.22;3.50;;;;;;;;;;5084513;28;20517;-74
2023/04/28 02:43:32;;;;;;;5.40;4.40;;;;;;;;;;5074178;28;20056;-75
2023/04/28 02:45:59;;;;;;;5.43;3.28;;;;;;;;;;5090901;28;20105;-75
2023/04/28 02:48:26;;;;;;;5.95;4.07;;;;;;;;;;5090501;28;20097;-75
2023/04/28 02:50:53;;;;;;;8.65;4.43;;;;;;;;;;5090242;28;20411;-75
2023/04/28 02:53:20;;;;;;;4.65;3.90;;;;;;;;;;5073737;28;20481;-75
2023/04/28 02:55:47;;;;;;;6.60;3.78;;;;;;;;;;5090512;28;20048;-75
2023/04/28 02:58:14;;;;;;;5.40;3.97;;;;;;;;;;5073768;28;20113;-76
2023/04/28 03:00:41;;;;;;;5.80;3.50;;;;;;;;;;5090010;28;20071;-75
2023/04/28 03:03:07;;;;;;;6.35;4.20;;;;;;;;;;5090301;28;20083;-74
2023/04/28 03:05:34;;;;;;;5.63;3.60;;;;;;;;;;5090676;28;20059;-75
2023/04/28 03:08:01;;;;;;;4.93;3.78;;;;;;;;;;5091519;28;20051;-75
2023/04/28 03:10:28;;;;;;;6.32;3.60;;;;;;;;;;5090851;28;20176;-75
2023/04/28 03:12:54;;;;;;;4.80;3.88;;;;;;;;;;5069486;28;20060;-75
2023/04/28 03:15:21;;;;;;;5.45;3.83;;;;;;;;;;5086123;28;20405;-75
2023/04/28 03:17:48;;;;;;;5.22;3.92;;;;;;;;;;5069371;28;20056;-75
2023/04/28 03:20:15;;;;;;;8.43;4.35;;;;;;;;;;5068942;28;20064;-76
2023/04/28 03:22:41;;;;;;;7.20;4.35;;;;;;;;;;5069880;28;20539;-75
2023/04/28 03:25:08;;;;;;;6.95;3.78;;;;;;;;;;5085882;28;20044;-75
2023/04/28 03:27:35;;;;;;;4.72;4.18;;;;;;;;;;5070107;28;20095;-75
2023/04/28 03:30:02;;;;;;;7.90;5.07;;;;;;;;;;5090936;28;20056;-75
2023/04/28 03:32:29;;;;;;;8.07;4.72;;;;;;;;;;5100946;28;20114;-75
2023/04/28 03:34:56;;;;;;;6.70;5.65;;;;;;;;;;5073136;28;20060;-76
2023/04/28 03:37:23;;;;;;;6.68;5.20;;;;;;;;;;5089578;28;20060;-75
2023/04/28 03:39:49;;;;;;;8.60;5.82;;;;;;;;;;5091055;28;20051;-75
2023/04/28 03:42:16;;;;;;;9.02;5.45;;;;;;;;;;5091165;28;20059;-75
2023/04/28 03:44:43;;;;;;;6.40;5.15;;;;;;;;;;5089491;28;20105;-76
2023/04/28 03:47:10;;;;;;;9.65;5.10;;;;;;;;;;5089545;28;20062;-76
2023/04/28 03:49:37;;;;;;;11.20;4.72;;;;;;;;;;5089655;28;20518;-77
2023/04/28 03:52:03;;;;;;;23.63;9.77;;;;;;;;;;5089487;28;20131;-77
2023/04/28 03:54:30;;;;;;;34.25;19.50;;;;;;;;;;5072878;28;20058;-77
2023/04/28 03:56:57;;;;;;;31.55;21.95;;;;;;;;;;5089931;28;20401;-76
2023/04/28 03:59:23;;;;;;;10.73;7.97;;;;;;;;;;5090146;28;20056;-77
2023/04/28 04:01:50;;;;;;;7.03;5.20;;;;;;;;;;5068884;28;20063;-76
2023/04/28 04:04:17;;;;;;;11.02;5.18;;;;;;;;;;5086098;28;20079;-76
2023/04/28 04:06:44;;;;;;;8.93;4.82;;;;;;;;;;5086104;28;20131;-78
2023/04/28 04:09:11;;;;;;;5.68;4.28;;;;;;;;;;5060290;28;20420;-76
2023/04/28 04:11:38;;;;;;;4.88;4.30;;;;;;;;;;5089452;28;20077;-77
2023/04/28 04:14:05;;;;;;;6.55;4.53;;;;;;;;;;5073192;28;20059;-76
2023/04/28 04:16:32;;;;;;;6.18;4.43;;;;;;;;;;5089252;28;20044;-76
2023/04/28 04:19:01;;;;;;;4.68;4.22;;;;;;;;;;5072349;28;20134;-76
2023/04/28 04:21:29;;;;;;;6.25;4.50;;;;;;;;;;5091343;28;20047;-77
2023/04/28 04:23:56;;;;;;;8.75;4.60;;;;;;;;;;5089064;28;20048;-77
2023/04/28 04:26:22;;;;;;;5.72;4.60;;;;;;;;;;5087938;28;20052;-75
2023/04/28 04:28:49;;;;;;;4.75;4.28;;;;;;;;;;5091186;28;20409;-77
2023/04/28 04:31:18;;;;;;;7.38;5.00;;;;;;;;;;5085283;28;20056;-77
2023/04/28 04:33:45;;;;;;;7.50;5.20;;;;;;;;;;5090139;28;20062;-77
2023/04/28 04:36:12;;;;;;;4.63;4.22;;;;;;;;;;5091882;28;20048;-79
2023/04/28 04:38:39;;;;;;;6.90;4.43;;;;;;;;;;5087628;28;20274;-77
2023/04/28 04:41:06;;;;;;;9.18;4.78;;;;;;;;;;5102554;28;20036;-78
2023/04/28 04:43:32;;;;;;;5.20;4.53;;;;;;;;;;5096767;28;20052;-79
2023/04/28 04:45:59;;;;;;;5.80;4.55;;;;;;;;;;5094464;28;20657;-80
2023/04/28 04:48:26;;;;;;;7.82;4.70;;;;;;;;;;5077179;28;20055;-81
2023/04/28 04:50:52;;;;;;;5.10;4.60;;;;;;;;;;5075798;28;20809;-82
2023/04/28 04:53:19;;;;;;;6.30;4.75;;;;;;;;;;5076885;28;20389;-80
2023/04/28 04:55:46;;;;;;;5.93;4.47;;;;;;;;;;5092406;28;20055;-82
2023/04/28 04:58:13;;;;;;;6.85;4.72;;;;;;;;;;5093539;28;20056;-80
2023/04/28 05:00:39;;;;;;;5.45;4.32;;;;;;;;;;5093994;28;20048;-77
2023/04/28 05:03:07;;;;;;;6.07;4.88;;;;;;;;;;5073887;28;20052;-78
2023/04/28 05:05:34;;;;;;;5.50;4.50;;;;;;;;;;5089609;28;20059;-78
2023/04/28 05:08:02;;;;;;;5.70;5.05;;;;;;;;;;5056974;28;20048;-77
2023/04/28 05:10:29;;;;;;;7.90;5.88;;;;;;;;;;5090247;28;20044;-78
2023/04/28 05:12:56;;;;;;;7.47;5.22;;;;;;;;;;5075020;28;20056;-78
2023/04/28 05:15:22;;;;;;;5.22;4.55;;;;;;;;;;5075534;28;20052;-76
2023/04/28 05:17:49;;;;;;;7.07;5.40;;;;;;;;;;5092958;28;20055;-77
2023/04/28 05:20:16;;;;;;;8.13;5.25;;;;;;;;;;5076389;28;20051;-78
2023/04/28 05:22:42;;;;;;;7.18;5.38;;;;;;;;;;5092839;28;20151;-76
2023/04/28 05:25:09;;;;;;;7.78;5.03;;;;;;;;;;5079259;28;20044;-77
2023/04/28 05:27:38;;;;;;;5.75;5.07;;;;;;;;;;5059823;28;20055;-77
2023/04/28 05:30:06;;;;;;;6.70;5.50;;;;;;;;;;5075465;28;20139;-76
2023/04/28 05:32:34;;;;;;;8.95;5.40;;;;;;;;;;5072221;28;20056;-77
2023/04/28 05:35:01;;;;;;;9.50;5.63;;;;;;;;;;5072576;28;20048;-77
2023/04/28 05:37:28;;;;;;;6.88;4.68;;;;;;;;;;5056756;28;20060;-77
2023/04/28 05:39:55;;;;;;;6.10;4.07;;;;;;;;;;5073552;28;20056;-78
2023/04/28 05:42:21;;;;;;;6.38;4.15;;;;;;;;;;5096948;28;20063;-81
2023/04/28 05:44:48;;;;;;;5.93;4.35;;;;;;;;;;5098369;28;20415;-80
2023/04/28 05:47:15;;;;;;;5.95;4.50;;;;;;;;;;5097969;28;20504;-79
2023/04/28 05:49:42;;;;;;;5.15;4.25;;;;;;;;;;5080542;28;20052;-78
2023/04/28 05:52:08;;;;;;;5.97;4.28;;;;;;;;;;5096099;28;20052;-77
2023/04/28 05:54:35;;;;;;;5.30;4.47;;;;;;;;;;5096102;28;20055;-79
2023/04/28 05:57:02;;;;;;;7.20;4.38;;;;;;;;;;5078106;28;20054;-79
2023/04/28 05:59:30;;;;;;;7.45;4.90;;;;;;;;;;5077885;28;20060;-80
2023/04/28 06:01:57;;;;;;;6.47;4.40;;;;;;;;;;5094537;28;20064;-78
2023/04/28 06:04:24;;;;;;;6.68;4.85;;;;;;;;;;5092909;28;20052;-80
2023/04/28 06:06:52;;;;;;;7.05;5.25;;;;;;;;;;5095151;28;20063;-80
2023/04/28 06:09:19;;;;;;;6.70;4.82;;;;;;;;;;5074163;28;20052;-78
2023/04/28 06:11:46;;;;;;;7.25;4.47;;;;;;;;;;5090591;28;20772;-77
2023/04/28 06:14:12;;;;;;;6.75;5.20;;;;;;;;;;5055806;28;20067;-78
2023/04/28 06:16:39;;;;;;;5.38;4.88;;;;;;;;;;5072838;28;20149;-82
2023/04/28 06:19:06;;;;;;;7.07;4.78;;;;;;;;;;5037955;28;20052;-79
2023/04/28 06:21:33;;;;;;;6.38;4.88;;;;;;;;;;5056641;28;20105;-84
2023/04/28 06:24:00;;;;;;;7.00;4.60;;;;;;;;;;5039626;28;20112;-78
2023/04/28 06:26:27;;;;;;;4.80;4.40;;;;;;;;;;5076174;28;20056;-80
2023/04/28 06:28:54;;;;;;;6.00;4.90;;;;;;;;;;5076377;28;20048;-76
2023/04/28 06:31:21;;;;;;;6.18;4.15;;;;;;;;;;5090813;28;20058;-77
2023/04/28 06:33:48;;;;;;;5.05;4.00;;;;;;;;;;5090309;28;20058;-76
2023/04/28 06:36:16;;;;;;;6.90;4.72;;;;;;;;;;5090724;28;20052;-77
2023/04/28 06:38:44;;;;;;;5.45;4.40;;;;;;;;;;5074431;28;20059;-77
2023/04/28 06:41:11;;;;;;;6.28;4.50;;;;;;;;;;5065219;28;20079;-76
2023/04/28 06:43:42;;;;;;;5.05;4.43;;;;;;;;;;5069818;28;20516;-76
2023/04/28 06:46:10;;;;;;;7.72;4.50;;;;;;;;;;5096491;28;20048;-77
2023/04/28 06:48:37;;;;;;;5.60;4.25;;;;;;;;;;5076395;28;20089;-77
2023/04/28 06:51:04;;;;;;;5.60;4.32;;;;;;;;;;5075363;28;20052;-75
2023/04/28 06:53:31;;;;;;;5.63;4.10;;;;;;;;;;5092097;28;20067;-77
2023/04/28 06:55:58;;;;;;;4.55;3.90;;;;;;;;;;5091501;28;20051;-76
2023/04/28 06:58:29;;;;;;;9.02;4.97;;;;;;;;;;5074348;28;20496;-77
2023/04/28 07:00:56;;;;;;;6.97;5.25;;;;;;;;;;5094420;28;20056;-77
2023/04/28 07:03:22;;;;;;;10.27;5.20;;;;;;;;;;5093194;28;20052;-79
2023/04/28 07:05:49;;;;;;;6.07;4.38;;;;;;;;;;5095800;28;20461;-83
2023/04/28 07:08:16;;;;;;;6.18;4.88;;;;;;;;;;5075881;28;20052;-78
2023/04/28 07:10:43;;;;;;;6.03;4.85;;;;;;;;;;5091972;28;20060;-78
2023/04/28 07:13:10;;;;;;;5.78;4.50;;;;;;;;;;5092862;28;20134;-79
2023/04/28 07:15:37;;;;;;;6.25;4.85;;;;;;;;;;5092871;28;20059;-79
2023/04/28 07:18:04;;;;;;;8.50;5.15;;;;;;;;;;5075869;28;20048;-79
2023/04/28 07:20:31;;;;;;;6.18;4.82;;;;;;;;;;5094349;28;20067;-78
2023/04/28 07:22:58;;;;;;;5.95;4.78;;;;;;;;;;5078149;28;20060;-77
2023/04/28 07:25:25;;;;;;;7.05;5.20;;;;;;;;;;5059831;28;20052;-78
2023/04/28 07:27:53;;;;;;;8.15;5.18;;;;;;;;;;5092244;28;20044;-78
2023/04/28 07:30:20;;;;;;;6.97;5.75;;;;;;;;;;5091782;28;20060;-80
2023/04/28 07:32:54;;;;;;;8.70;5.70;;;;;;;;;;5076167;28;20526;-79
2023/04/28 07:35:21;;;;;;;5.95;5.38;;;;;;;;;;5091717;28;20056;-79
2023/04/28 07:37:48;;;;;;;8.38;5.63;;;;;;;;;;5058081;28;20499;-79
2023/04/28 07:40:15;;;;;;;6.13;4.80;;;;;;;;;;5075462;28;20094;-79
2023/04/28 07:42:42;;;;;;;8.20;4.97;;;;;;;;;;5074873;28;20139;-79
2023/04/28 07:45:10;;;;;;;5.93;4.63;;;;;;;;;;5058752;28;20052;-79
2023/04/28 07:47:37;;;;;;;10.98;5.00;;;;;;;;;;5058180;28;20044;-78
2023/04/28 07:50:05;;;;;;;7.40;5.35;;;;;;;;;;5074070;28;20052;-78
2023/04/28 07:52:33;;;;;;;6.68;4.65;;;;;;;;;;5057716;28;20079;-79
2023/04/28 07:55:01;;;;;;;5.32;4.70;;;;;;;;;;5075237;28;20048;-79
2023/04/28 07:57:28;;;;;;;5.95;5.35;;;;;;;;;;5058842;28;20470;-78
2023/04/28 07:59:55;;;;;;;10.52;5.13;;;;;;;;;;5075784;28;20081;-79
2023/04/28 08:02:22;;;;;;;6.10;5.43;;;;;;;;;;5091870;28;20058;-79
2023/04/28 08:04:49;;;;;;;6.85;5.68;;;;;;;;;;5076192;28;20052;-79
2023/04/28 08:07:16;;;;;;;10.68;6.50;;;;;;;;;;5091902;28;20118;-79
2023/04/28 08:09:47;;;;;;;8.80;5.35;;;;;;;;;;5091134;28;20071;-78
2023/04/28 08:12:14;;;;;;;6.10;5.50;;;;;;;;;;5092076;28;20143;-80
2023/04/28 08:14:40;;;;;;;8.65;5.55;;;;;;;;;;5059295;28;20048;-79
2023/04/28 08:17:08;;;;;;;7.72;5.50;;;;;;;;;;5090852;28;20084;-79
2023/04/28 08:19:35;;;;;;;7.97;6.05;;;;;;;;;;5090851;28;20056;-79
2023/04/28 08:22:04;;;;;;;8.38;6.05;;;;;;;;;;5054773;28;20056;-78
2023/04/28 08:24:35;;;;;;;8.63;6.60;;;;;;;;;;5054733;28;20060;-79
2023/04/28 08:27:02;;;;;;;7.75;5.55;;;;;;;;;;5056255;28;20139;-78
2023/04/28 08:29:30;;;;;;;7.25;6.30;;;;;;;;;;5074153;28;20443;-79
2023/04/28 08:31:57;;;;;;;9.43;6.38;;;;;;;;;;5057703;28;20401;-79
2023/04/28 08:34:24;;;;;;;8.13;6.40;;;;;;;;;;5074354;28;20056;-78
2023/04/28 08:36:51;;;;;;;8.82;6.30;;;;;;;;;;5074643;28;20052;-78
2023/04/28 08:39:19;;;;;;;8.00;5.93;;;;;;;;;;5091112;28;20523;-78
2023/04/28 08:41:46;;;;;;;9.88;6.95;;;;;;;;;;5057922;28;20063;-78
2023/04/28 08:44:13;;;;;;;8.38;6.35;;;;;;;;;;5070847;28;20269;-76
2023/04/28 08:46:41;;;;;;;9.05;6.68;;;;;;;;;;5070321;28;20069;-78
2023/04/28 08:49:14;;;;;;;9.75;7.70;;;;;;;;;;5055315;28;20555;-76
2023/04/28 08:51:46;;;;;;;11.60;7.10;;;;;;;;;;5057279;28;20063;-77
2023/04/28 08:54:15;;;;;;;8.83;6.60;;;;;;;;;;5057141;28;20562;-76
2023/04/28 08:56:51;;;;;;;7.68;6.53;;;;;;;;;;5061343;28;20044;-77
2023/04/28 08:59:18;;;;;;;9.57;6.38;;;;;;;;;;5076148;28;20499;-77
2023/04/28 09:01:48;;;;;;;6.75;6.05;;;;;;;;;;5075718;28;20052;-77
2023/04/28 09:04:18;;;;;;;7.90;5.90;;;;;;;;;;5060200;28;20128;-77
2023/04/28 09:06:46;;;;;;;10.20;6.50;;;;;;;;;;5092919;28;20052;-77
2023/04/28 09:09:28;;;;;;;8.55;6.30;;;;;;;;;;5092501;28;20063;-77
2023/04/28 09:12:00;;;;;;;7.55;6.35;;;;;;;;;;5092974;28;20048;-77
2023/04/28 09:14:29;;;;;;;9.65;6.22;;;;;;;;;;5075854;28;20121;-77
2023/04/28 09:16:56;;;;;;;8.43;7.40;;;;;;;;;;5076078;28;20059;-77
2023/04/28 09:19:23;;;;;;;8.15;6.75;;;;;;;;;;5092372;28;20070;-76
2023/04/28 09:21:51;;;;;;;7.93;5.95;;;;;;;;;;5071826;28;20060;-76
2023/04/28 09:24:26;;;;;;;7.03;5.75;;;;;;;;;;5072365;28;20057;-77
2023/04/28 09:26:52;;;;;;;6.60;5.90;;;;;;;;;;5071945;28;20427;-77
2023/04/28 09:29:21;;;;;;;6.80;6.15;;;;;;;;;;5073027;28;20458;-77
2023/04/28 09:31:48;;;;;;;7.65;5.60;;;;;;;;;;5056645;28;20060;-76
2023/04/28 09:34:15;;;;;;;7.25;5.93;;;;;;;;;;5087980;28;20052;-77
2023/04/28 09:36:42;;;;;;;6.88;5.53;;;;;;;;;;5092395;28;20484;-77
2023/04/28 09:39:08;;;;;;;6.20;5.47;;;;;;;;;;5092104;28;20067;-77
2023/04/28 09:41:40;;;;;;;8.13;5.50;;;;;;;;;;5074959;28;20139;-77
2023/04/28 09:44:15;;;;;;;6.60;4.65;;;;;;;;;;5075319;28;20066;-77
2023/04/28 09:46:43;;;;;;;6.60;5.10;;;;;;;;;;5055197;28;20052;-77
2023/04/28 09:49:14;;;;;;;5.13;4.50;;;;;;;;;;5059226;28;20084;-84
2023/04/28 09:51:41;;;;;;;6.88;4.85;;;;;;;;;;5060225;28;20052;-80
2023/04/28 09:54:10;;;;;;;6.15;4.63;;;;;;;;;;5073713;28;20052;-79
2023/04/28 09:56:37;;;;;;;6.80;5.00;;;;;;;;;;5077232;28;20064;-78
2023/04/28 09:59:06;;;;;;;6.22;5.63;;;;;;;;;;5086213;28;20066;-79
2023/04/28 10:01:37;;;;;;;7.00;5.32;;;;;;;;;;5092155;28;20089;-78
2023/04/28 10:04:05;;;;;;;5.78;5.28;;;;;;;;;;5093036;28;20109;-79
2023/04/28 10:06:34;;;;;;;7.53;5.63;;;;;;;;;;5076408;28;20870;-79
2023/04/28 10:09:01;;;;;;;7.35;5.43;;;;;;;;;;5075381;28;20138;-77
2023/04/28 10:11:29;;;;;;;5.68;5.18;;;;;;;;;;5074709;28;20052;-79
2023/04/28 10:13:56;;;;;;;6.88;4.45;;;;;;;;;;5091614;28;20062;-79
2023/04/28 10:16:23;;;;;;;5.85;4.22;;;;;;;;;;5091982;28;20506;-79
2023/04/28 10:18:50;;;;;;;4.85;4.15;;;;;;;;;;5074557;28;20059;-78
2023/04/28 10:21:17;;;;;;;5.75;4.13;;;;;;;;;;5091038;28;20134;-78
2023/04/28 10:24:22;;;;;;;4.30;3.85;;;;;;;;;;5091511;28;20138;-78
2023/04/28 10:26:55;;;;;;;5.30;3.90;;;;;;;;;;5072896;28;20055;-78
2023/04/28 10:29:25;;;;;;;4.55;3.45;;;;;;;;;;5091592;28;20405;-78
2023/04/28 10:32:15;;;;;;;7.38;3.88;;;;;;;;;;5090663;28;20056;-78
2023/04/28 10:34:42;;;;;;;5.18;4.68;;;;;;;;;;5074003;28;20134;-76
2023/04/28 10:37:08;;;;;;;5.63;3.67;;;;;;;;;;5073561;28;20070;-75
2023/04/28 10:39:36;;;;;;;5.07;4.38;;;;;;;;;;5072858;28;20055;-75
2023/04/28 10:42:02;;;;;;;4.97;3.78;;;;;;;;;;5096705;28;20120;-79
2023/04/28 10:44:29;;;;;;;3.70;3.15;;;;;;;;;;5112368;28;20108;-76
2023/04/28 10:47:00;;;;;;;3.65;3.10;;;;;;;;;;5113111;28;20083;-76
2023/04/28 10:49:58;;;;;;;4.50;3.28;;;;;;;;;;5099533;28;20136;-77
2023/04/28 10:52:37;;;;;;;4.00;3.60;;;;;;;;;;5082379;28;20771;-77
2023/04/28 10:55:32;;;;;;;5.05;3.10;;;;;;;;;;5092782;28;20048;-77
2023/04/28 10:58:14;;;;;;;4.72;3.20;;;;;;;;;;5071789;28;20044;-77
2023/04/28 11:00:49;;;;;;;4.97;3.20;;;;;;;;;;5091300;28;20126;-77
2023/04/28 11:03:59;;;;;;;3.28;2.40;;;;;;;;;;5089546;28;20048;-75
2023/04/28 11:06:34;;;;;;;3.25;2.38;;;;;;;;;;5074204;28;20059;-76
2023/04/28 11:09:30;;;;;;;4.30;2.42;;;;;;;;;;5089661;28;20052;-77
2023/04/28 11:12:09;;;;;;;3.20;2.90;;;;;;;;;;5086610;28;20948;-76
2023/04/28 11:14:56;;;;;;;3.78;2.90;;;;;;;;;;5089791;28;20051;-76
2023/04/28 11:17:39;;;;;;;2.92;2.10;;;;;;;;;;5073380;28;20082;-76
2023/04/28 11:20:07;;;;;;;3.13;2.30;;;;;;;;;;5074175;28;20052;-76
2023/04/28 11:22:34;;;;;;;2.72;2.20;;;;;;;;;;5090569;28;20052;-77
2023/04/28 11:25:04;;;;;;;2.72;2.03;;;;;;;;;;5091289;28;20051;-79
2023/04/28 11:27:32;;;;;;;3.70;1.90;;;;;;;;;;5058610;28;20048;-77
2023/04/28 11:30:00;;;;;;;2.45;1.88;;;;;;;;;;5090275;28;20059;-76
2023/04/28 11:32:34;;;;;;;1.90;1.70;;;;;;;;;;5091065;28;20055;-76
2023/04/28 11:35:08;;;;;;;1.50;1.40;;;;;;;;;;5091713;28;20051;-77
2023/04/28 11:37:35;;;;;;;1.65;1.52;;;;;;;;;;5073548;28;20135;-77
2023/04/28 11:40:13;;;;;;;2.35;1.35;;;;;;;;;;5073219;28;20059;-77
2023/04/28 11:42:48;;;;;;;1.13;0.82;;;;;;;;;;5057482;28;20121;-77
2023/04/28 11:45:15;;;;;;;1.70;1.17;;;;;;;;;;5056438;28;20142;-77
2023/04/28 11:47:43;;;;;;;2.20;0.95;;;;;;;;;;5073544;28;20051;-77
2023/04/28 11:50:11;;;;;;;1.50;0.95;;;;;;;;;;5073097;28;20464;-76
2023/04/28 11:52:50;;;;;;;2.42;1.38;;;;;;;;;;5073473;28;20056;-77
2023/04/28 11:55:19;;;;;;;1.70;1.40;;;;;;;;;;5057908;28;20535;-79
2023/04/28 11:57:46;;;;;;;1.70;1.25;;;;;;;;;;5074499;28;20052;-77
2023/04/28 12:00:17;;;;;;;1.02;0.90;;;;;;;;;;5058228;28;20555;-77
2023/04/28 12:02:45;;;;;;;1.10;1.00;;;;;;;;;;5089379;28;20105;-77
2023/04/28 12:05:12;;;;;;;1.23;1.13;;;;;;;;;;5056569;28;20052;-77
2023/04/28 12:07:43;;;;;;;1.02;0.98;;;;;;;;;;5090184;28;20083;-77
2023/04/28 12:10:17;;;;;;;1.08;1.00;;;;;;;;;;5066712;28;20125;-77
2023/04/28 12:12:46;;;;;;;0.75;0.70;;;;;;;;;;5073483;28;20050;-76
2023/04/28 12:15:19;;;;;;;0.80;0.80;;;;;;;;;;5056251;28;20111;-76
2023/04/28 12:17:49;;;;;;;0.93;0.80;;;;;;;;;;5088920;28;20056;-76
2023/04/28 12:20:36;;;;;;;1.65;1.20;;;;;;;;;;5088184;28;20058;-76
2023/04/28 12:23:03;;;;;;;1.40;1.10;;;;;;;;;;5091169;28;20602;-79
2023/04/28 12:25:29;;;;;;;1.30;1.02;;;;;;;;;;5078494;28;20055;-80
2023/04/28 12:28:01;;;;;;;2.63;1.40;;;;;;;;;;5067347;28;20052;-79
2023/04/28 12:30:30;;;;;;;1.55;1.30;;;;;;;;;;5056009;28;20052;-79
2023/04/28 12:32:56;;;;;;;1.50;1.20;;;;;;;;;;5091483;28;20067;-80
2023/04/28 12:35:25;;;;;;;1.95;1.10;;;;;;;;;;5055965;28;20052;-80
2023/04/28 12:37:54;;;;;;;1.92;1.30;;;;;;;;;;5055934;28;20052;-80
2023/04/28 12:40:21;;;;;;;3.75;1.50;;;;;;;;;;5055964;28;20083;-79
2023/04/28 12:42:48;;;;;;;1.45;1.33;;;;;;;;;;5074006;28;20062;-80
2023/04/28 12:45:15;;;;;;;1.02;1.02;;;;;;;;;;5059169;28;20048;-80
2023/04/28 12:47:42;;;;;;;0.77;0.77;;;;;;;;;;5075569;28;20048;-80
2023/04/28 12:50:09;;;;;;;1.60;0.45;;;;;;;;;;5059134;28;20063;-80
2023/04/28 12:52:36;;;;;;;1.85;0.60;;;;;;;;;;5075637;28;20052;-80
2023/04/28 12:55:03;;;;;;;0.30;0.30;;;;;;;;;;5055143;28;20103;-80
2023/04/28 12:57:30;;;;;;;1.35;0.40;;;;;;;;;;5055608;28;20053;-79
2023/04/28 12:59:57;;;;;;;0.50;0.40;;;;;;;;;;5088621;28;20066;-80
2023/04/28 13:02:23;;;;;;;2.08;0.60;;;;;;;;;;5071914;28;20048;-80
2023/04/28 13:04:51;;;;;;;1.75;0.50;;;;;;;;;;5087099;28;20151;-77
2023/04/28 13:07:19;;;;;;;1.25;0.52;;;;;;;;;;5089326;28;20044;-77
2023/04/28 13:09:45;;;;;;;1.10;0.80;;;;;;;;;;5090591;28;20052;-75
2023/04/28 13:12:13;;;;;;;1.08;0.95;;;;;;;;;;5105160;28;20147;-78
2023/04/28 13:14:40;;;;;;;0.60;0.60;;;;;;;;;;5055626;28;20052;-80
2023/04/28 13:17:08;;;;;;;0.65;0.60;;;;;;;;;;5089157;28;20056;-79
2023/04/28 13:19:35;;;;;;;2.03;0.50;;;;;;;;;;5088482;28;20056;-78
2023/04/28 13:22:04;;;;;;;0.45;0.45;;;;;;;;;;5073190;28;20051;-79
2023/04/28 13:24:32;;;;;;;0.32;0.28;;;;;;;;;;5056344;28;20052;-79
2023/04/28 13:26:59;;;;;;;1.00;0.50;;;;;;;;;;5091061;28;20427;-79
2023/04/28 13:29:26;;;;;;;1.77;0.60;;;;;;;;;;5071419;28;20432;-79
2023/04/28 13:31:52;;;;;;;1.42;0.90;;;;;;;;;;5061882;28;20059;-78
2023/04/28 13:34:19;;;;;;;4.88;0.82;;;;;;;;;;5066895;28;20135;-79
2023/04/28 13:36:49;;;;;;;2.38;0.40;;;;;;;;;;5078190;28;20148;-79
2023/04/28 13:39:18;;;;;;;0.65;0.43;;;;;;;;;;5074257;28;20076;-78
2023/04/28 13:41:46;;;;;;;0.52;0.52;;;;;;;;;;5089587;28;20083;-79
2023/04/28 13:44:12;;;;;;;0.35;0.35;;;;;;;;;;5089921;28;20615;-79
2023/04/28 13:46:41;;;;;;;1.48;0.30;;;;;;;;;;5040316;28;20067;-80
2023/04/28 13:49:11;;;;;;;0.65;0.50;;;;;;;;;;5057877;28;20131;-79
2023/04/28 13:51:38;;;;;;;1.38;0.50;;;;;;;;;;5076910;28;20158;-79
2023/04/28 13:54:07;;;;;;;1.27;0.40;;;;;;;;;;5094141;28;20063;-79
2023/04/28 13:56:35;;;;;;;1.23;0.32;;;;;;;;;;5061542;28;20052;-77
2023/04/28 13:59:02;;;;;;;1.35;0.50;;;;;;;;;;5077186;28;20047;-78
2023/04/28 14:01:29;;;;;;;1.27;0.60;;;;;;;;;;5076296;28;20054;-78
2023/04/28 14:03:55;;;;;;;3.58;1.02;;;;;;;;;;5094084;28;20536;-79
2023/04/28 14:06:23;;;;;;;2.35;0.60;;;;;;;;;;5095464;28;20095;-80
2023/04/28 14:08:49;;;;;;;1.83;0.70;;;;;;;;;;5079452;28;20052;-79
2023/04/28 14:11:16;;;;;;;1.45;0.85;;;;;;;;;;5094696;28;20143;-76
2023/04/28 14:13:43;;;;;;;1.83;0.90;;;;;;;;;;5094607;28;20048;-77
2023/04/28 14:16:10;;;;;;;2.38;0.80;;;;;;;;;;5077692;28;20058;-79
2023/04/28 14:18:37;;;;;;;4.07;0.90;;;;;;;;;;5076743;28;20094;-76
2023/04/28 14:21:06;;;;;;;2.17;1.27;;;;;;;;;;5077060;28;20143;-77
2023/04/28 14:23:34;;;;;;;2.00;1.00;;;;;;;;;;5094150;28;20055;-79
2023/04/28 14:26:01;;;;;;;1.10;0.70;;;;;;;;;;5094509;28;20052;-78
2023/04/28 14:28:28;;;;;;;1.75;0.95;;;;;;;;;;5078018;28;20086;-77
2023/04/28 14:30:54;;;;;;;3.70;1.52;;;;;;;;;;5093402;28;20047;-78
2023/04/28 14:33:21;;;;;;;1.33;1.05;;;;;;;;;;5076465;28;20135;-78
2023/04/28 14:35:48;;;;;;;1.75;0.70;;;;;;;;;;5060337;28;20064;-77
2023/04/28 14:38:15;;;;;;;1.35;0.88;;;;;;;;;;5060002;28;20052;-78
2023/04/28 14:40:42;;;;;;;1.92;0.90;;;;;;;;;;5077303;28;20086;-78
2023/04/28 14:43:08;;;;;;;2.15;1.05;;;;;;;;;;5060728;28;20511;-78
2023/04/28 14:45:36;;;;;;;2.22;0.90;;;;;;;;;;5078734;28;20086;-78
2023/04/28 14:48:05;;;;;;;0.98;0.88;;;;;;;;;;5078022;28;20056;-77
2023/04/28 14:50:32;;;;;;;1.77;0.90;;;;;;;;;;5077613;28;20384;-77